Time;durP1;ratioP1;P1;durP2;ratioP2;P2;SDS_P1;SDS_P2;PMS_P1;PMS_P2;Temp;Humidity;BMP_temperature;BMP_pressure;BME280_temperature;BME280_humidity;BME280_pressure;Samples;Min_cycle;Max_cycle;Signal;HPM_P1;HPM_P2
2021/07/19 00:00:43;;;;;;;;;;;10.90;99.90;;;;;;5073986;28;19924;-64
2021/07/19 00:03:09;;;;;;;;;;;10.90;99.90;;;;;;5074357;28;20382;-64
2021/07/19 00:05:36;;;;;;;;;;;11.00;99.90;;;;;;5073796;28;19908;-65
2021/07/19 00:08:03;;;;;;;;;;;11.00;99.90;;;;;;5073786;28;20003;-64
2021/07/19 00:10:29;;;;;;;;;;;11.10;99.90;;;;;;5073729;28;19916;-65
2021/07/19 00:12:56;;;;;;;;;;;11.10;99.90;;;;;;5073622;28;19942;-64
2021/07/19 00:15:25;;;;;;;;;;;11.20;99.90;;;;;;5073653;28;20295;-64
2021/07/19 00:17:53;;;;;;;;;;;11.20;99.90;;;;;;5073640;28;19909;-64
2021/07/19 00:20:20;;;;;;;;;;;11.20;99.90;;;;;;5073903;28;19942;-63
2021/07/19 00:22:47;;;;;;;;;;;11.30;99.90;;;;;;5073631;28;19916;-65
2021/07/19 00:25:14;;;;;;;;;;;11.50;99.90;;;;;;5073022;28;19916;-64
2021/07/19 00:27:42;;;;;;;;;;;11.60;99.90;;;;;;5072425;28;19912;-64
2021/07/19 00:30:14;;;;;;;;;;;11.70;99.90;;;;;;5073460;28;20351;-64
2021/07/19 00:32:41;;;;;;;;;;;11.70;99.90;;;;;;5073201;28;20051;-64
2021/07/19 00:35:08;;;;;;;;;;;11.80;99.90;;;;;;5073153;28;19962;-64
2021/07/19 00:37:36;;;;;;;;;;;11.90;99.90;;;;;;5072563;28;19935;-64
2021/07/19 00:40:07;;;;;;;;;;;12.00;99.90;;;;;;5072957;28;19909;-65
2021/07/19 00:42:36;;;;;;;;;;;12.10;99.90;;;;;;5072031;28;20277;-64
2021/07/19 00:45:06;;;;;;;;;;;12.00;99.60;;;;;;5072900;28;20375;-63
2021/07/19 00:47:33;;;;;;;;;;;12.10;99.30;;;;;;5072748;28;19912;-64
2021/07/19 00:50:00;;;;;;;;;;;12.10;99.10;;;;;;5073081;28;19936;-64
2021/07/19 00:52:26;;;;;;;;;;;12.20;99.30;;;;;;5073161;28;20314;-64
2021/07/19 00:54:53;;;;;;;;;;;12.20;98.80;;;;;;5072647;28;20019;-64
2021/07/19 00:57:21;;;;;;;;;;;12.20;98.50;;;;;;5072989;28;19950;-64
2021/07/19 00:59:48;;;;;;;;;;;12.20;99.00;;;;;;5072875;28;19912;-63
2021/07/19 01:02:15;;;;;;;;;;;12.30;98.60;;;;;;5072803;28;19912;-63
2021/07/19 01:04:42;;;;;;;;;;;12.20;98.70;;;;;;5072800;28;20295;-64
2021/07/19 01:07:10;;;;;;;;;;;12.30;98.80;;;;;;5072605;28;20004;-64
2021/07/19 01:09:37;;;;;;;;;;;12.20;98.70;;;;;;5072350;28;19913;-64
2021/07/19 01:12:03;;;;;;;;;;;12.30;98.80;;;;;;5072426;28;19913;-64
2021/07/19 01:14:30;;;;;;;;;;;12.40;98.40;;;;;;5072402;28;19920;-64
2021/07/19 01:16:57;;;;;;;;;;;12.50;98.40;;;;;;5072465;28;19915;-64
2021/07/19 01:19:25;;;;;;;;;;;12.60;98.00;;;;;;5072382;28;19954;-64
2021/07/19 01:22:10;;;;;;;;;;;12.70;97.90;;;;;;5072083;28;19908;-63
2021/07/19 01:24:38;;;;;;;;;;;12.70;97.80;;;;;;5072400;28;19908;-64
2021/07/19 01:27:23;;;;;;;;;;;12.70;97.70;;;;;;5072490;28;19909;-64
2021/07/19 01:29:50;;;;;;;;;;;12.80;98.30;;;;;;5072161;28;20073;-64
2021/07/19 01:32:17;;;;;;;;;;;12.80;97.40;;;;;;5072227;28;19997;-64
2021/07/19 01:34:44;;;;;;;;;;;12.80;98.00;;;;;;5072225;28;20029;-64
2021/07/19 01:37:14;;;;;;;;;;;12.70;97.20;;;;;;5072295;28;19908;-65
2021/07/19 01:39:41;;;;;;;;;;;12.60;97.40;;;;;;5072062;28;19909;-65
2021/07/19 01:42:08;;;;;;;;;;;12.60;97.80;;;;;;5070486;28;19915;-64
2021/07/19 01:44:36;;;;;;;;;;;12.60;97.70;;;;;;5070433;28;19954;-64
2021/07/19 01:47:06;;;;;;;;;;;12.70;97.80;;;;;;5071457;28;19912;-64
2021/07/19 01:49:33;;;;;;;;;;;12.60;97.70;;;;;;5072043;28;19959;-64
2021/07/19 01:52:00;;;;;;;;;;;12.60;97.90;;;;;;5072328;28;19909;-64
2021/07/19 01:54:27;;;;;;;;;;;12.70;97.60;;;;;;5071886;28;19938;-64
2021/07/19 01:56:54;;;;;;;;;;;12.70;97.40;;;;;;5071996;28;20443;-64
2021/07/19 01:59:20;;;;;;;;;;;12.90;97.80;;;;;;5072006;28;19915;-64
2021/07/19 02:01:47;;;;;;;;;;;12.90;97.50;;;;;;5071722;28;19913;-64
2021/07/19 02:04:14;;;;;;;;;;;12.90;97.00;;;;;;5071932;28;19909;-64
2021/07/19 02:06:42;;;;;;;;;;;12.90;97.10;;;;;;5072147;28;19916;-64
2021/07/19 02:09:10;;;;;;;;;;;13.00;97.30;;;;;;5071622;28;19947;-64
2021/07/19 02:11:37;;;;;;;;;;;13.00;96.50;;;;;;5071737;28;19955;-64
2021/07/19 02:14:07;;;;;;;;;;;12.90;96.70;;;;;;5071869;28;20503;-65
2021/07/19 02:16:35;;;;;;;;;;;13.00;97.00;;;;;;5071922;28;19921;-64
2021/07/19 02:19:02;;;;;;;;;;;13.00;96.70;;;;;;5071750;28;19916;-64
2021/07/19 02:21:28;;;;;;;;;;;13.10;96.90;;;;;;5071841;28;19909;-64
2021/07/19 02:23:55;;;;;;;;;;;13.00;96.30;;;;;;5071771;28;19916;-64
2021/07/19 02:26:23;;;;;;;;;;;13.10;97.20;;;;;;5071815;28;19909;-64
2021/07/19 02:28:50;;;;;;;;;;;13.20;95.90;;;;;;5071644;28;19919;-64
2021/07/19 02:31:18;;;;;;;;;;;13.20;96.00;;;;;;5071569;28;20252;-64
2021/07/19 02:33:45;;;;;;;;;;;13.30;96.00;;;;;;5071285;28;19920;-64
2021/07/19 02:36:12;;;;;;;;;;;13.30;96.30;;;;;;5071689;28;19908;-64
2021/07/19 02:38:39;;;;;;;;;;;13.30;96.40;;;;;;5071604;28;19909;-64
2021/07/19 02:41:07;;;;;;;;;;;13.40;96.00;;;;;;5071292;28;19916;-64
2021/07/19 02:43:34;;;;;;;;;;;13.40;96.10;;;;;;5070982;28;19927;-64
2021/07/19 02:46:01;;;;;;;;;;;13.40;96.20;;;;;;5071175;28;19944;-64
2021/07/19 02:48:30;;;;;;;;;;;13.50;95.80;;;;;;5071486;28;19932;-64
2021/07/19 02:50:58;;;;;;;;;;;13.60;95.30;;;;;;5074921;28;19918;-64
2021/07/19 02:53:29;;;;;;;;;;;13.60;95.60;;;;;;5075198;28;19908;-64
2021/07/19 02:55:57;;;;;;;;;;;13.50;94.10;;;;;;5075183;28;19913;-64
2021/07/19 02:58:23;;;;;;;;;;;13.50;95.10;;;;;;5075172;28;19912;-64
2021/07/19 03:00:50;;;;;;;;;;;13.40;95.00;;;;;;5075092;28;19914;-66
2021/07/19 03:03:22;;;;;;;;;;;13.40;95.00;;;;;;5074819;28;20025;-64
2021/07/19 03:05:57;;;;;;;;;;;13.50;95.00;;;;;;5074816;28;19908;-65
2021/07/19 03:08:24;;;;;;;;;;;13.50;95.20;;;;;;5074513;28;19982;-65
2021/07/19 03:10:52;;;;;;;;;;;13.60;95.30;;;;;;5074778;28;20363;-65
2021/07/19 03:13:24;;;;;;;;;;;13.60;94.80;;;;;;5074767;28;19909;-66
2021/07/19 03:15:52;;;;;;;;;;;13.70;94.60;;;;;;5074424;28;20386;-64
2021/07/19 03:18:22;;;;;;;;;;;13.70;93.90;;;;;;5074680;28;19909;-64
2021/07/19 03:20:49;;;;;;;;;;;13.80;93.50;;;;;;5074531;28;19916;-64
2021/07/19 03:23:17;;;;;;;;;;;13.90;94.10;;;;;;5074808;28;19934;-64
2021/07/19 03:25:44;;;;;;;;;;;14.00;92.70;;;;;;5074411;28;19915;-64
2021/07/19 03:28:12;;;;;;;;;;;13.80;93.30;;;;;;5074447;28;20377;-65
2021/07/19 03:30:40;;;;;;;;;;;13.80;91.90;;;;;;5074539;28;19936;-65
2021/07/19 03:33:07;;;;;;;;;;;13.70;92.80;;;;;;5074506;28;19908;-65
2021/07/19 03:35:34;;;;;;;;;;;13.80;93.10;;;;;;5074285;28;19916;-65
2021/07/19 03:38:01;;;;;;;;;;;13.80;94.10;;;;;;5074642;28;19909;-66
2021/07/19 03:40:28;;;;;;;;;;;13.80;93.70;;;;;;5074526;28;20231;-65
2021/07/19 03:42:57;;;;;;;;;;;13.80;92.90;;;;;;5074577;28;19912;-64
2021/07/19 03:45:24;;;;;;;;;;;13.80;93.40;;;;;;5074710;28;19908;-64
2021/07/19 03:47:51;;;;;;;;;;;13.80;93.60;;;;;;5075578;28;19912;-65
2021/07/19 03:50:18;;;;;;;;;;;13.90;93.50;;;;;;5074868;28;19961;-65
2021/07/19 03:52:48;;;;;;;;;;;13.90;93.90;;;;;;5074274;28;20278;-66
2021/07/19 03:55:15;;;;;;;;;;;13.90;93.70;;;;;;5074041;28;19921;-65
2021/07/19 03:57:42;;;;;;;;;;;13.90;94.40;;;;;;5073828;28;19916;-64
2021/07/19 04:00:10;;;;;;;;;;;14.00;93.70;;;;;;5073953;28;19920;-64
2021/07/19 04:02:38;;;;;;;;;;;14.00;93.50;;;;;;5074201;28;19908;-66
2021/07/19 04:05:07;;;;;;;;;;;14.00;93.40;;;;;;5074108;28;19954;-66
2021/07/19 04:07:44;;;;;;;;;;;14.00;93.90;;;;;;5073637;28;19957;-64
2021/07/19 04:10:12;;;;;;;;;;;13.90;93.40;;;;;;5073611;28;20369;-65
2021/07/19 04:12:45;;;;;;;;;;;14.00;93.70;;;;;;5074001;28;20391;-66
2021/07/19 04:15:13;;;;;;;;;;;14.00;93.80;;;;;;5073800;28;19925;-65
2021/07/19 04:17:40;;;;;;;;;;;14.10;94.10;;;;;;5073536;28;19909;-65
2021/07/19 04:20:08;;;;;;;;;;;14.00;93.40;;;;;;5073664;28;19916;-65
2021/07/19 04:22:35;;;;;;;;;;;14.00;93.10;;;;;;5073656;28;19915;-65
2021/07/19 04:25:06;;;;;;;;;;;14.00;94.10;;;;;;5073284;28;19916;-65
2021/07/19 04:27:34;;;;;;;;;;;14.00;94.10;;;;;;5073246;28;20366;-66
2021/07/19 04:30:01;;;;;;;;;;;14.00;93.60;;;;;;5073575;28;19993;-67
2021/07/19 04:32:28;;;;;;;;;;;13.90;94.30;;;;;;5073625;28;19909;-66
2021/07/19 04:34:54;;;;;;;;;;;14.00;93.80;;;;;;5073425;28;19917;-65
2021/07/19 04:37:21;;;;;;;;;;;14.00;94.20;;;;;;5073314;28;19935;-65
2021/07/19 04:39:49;;;;;;;;;;;14.00;94.70;;;;;;5072736;28;20003;-65
2021/07/19 04:42:15;;;;;;;;;;;14.00;94.30;;;;;;5073234;28;19912;-66
2021/07/19 04:44:42;;;;;;;;;;;14.00;94.20;;;;;;5073065;28;19927;-66
2021/07/19 04:47:09;;;;;;;;;;;13.90;94.20;;;;;;5073104;28;19908;-66
2021/07/19 04:49:40;;;;;;;;;;;14.00;94.40;;;;;;5072867;28;19908;-66
2021/07/19 04:52:07;;;;;;;;;;;14.00;93.60;;;;;;5073147;28;19912;-66
2021/07/19 04:54:38;;;;;;;;;;;14.00;94.00;;;;;;5072719;28;19920;-67
2021/07/19 04:57:10;;;;;;;;;;;14.00;94.10;;;;;;5073049;28;19915;-67
2021/07/19 04:59:44;;;;;;;;;;;14.00;93.60;;;;;;5072602;28;19908;-66
2021/07/19 05:02:14;;;;;;;;;;;14.00;93.90;;;;;;5072907;28;19908;-66
2021/07/19 05:04:42;;;;;;;;;;;13.90;94.60;;;;;;5072797;28;19943;-67
2021/07/19 05:07:08;;;;;;;;;;;13.90;94.10;;;;;;5072659;28;19954;-67
2021/07/19 05:09:40;;;;;;;;;;;13.90;94.10;;;;;;5072649;28;19908;-67
2021/07/19 05:12:10;;;;;;;;;;;13.90;93.90;;;;;;5072330;28;19908;-65
2021/07/19 05:14:38;;;;;;;;;;;13.90;94.10;;;;;;5072626;28;19917;-66
2021/07/19 05:17:05;;;;;;;;;;;13.90;93.90;;;;;;5072726;28;19916;-65
2021/07/19 05:19:33;;;;;;;;;;;13.90;94.40;;;;;;5072301;28;19909;-64
2021/07/19 05:21:59;;;;;;;;;;;13.90;94.80;;;;;;5072407;28;19916;-65
2021/07/19 05:24:29;;;;;;;;;;;13.80;94.20;;;;;;5072442;28;19908;-64
2021/07/19 05:26:56;;;;;;;;;;;13.90;94.10;;;;;;5072517;28;20506;-64
2021/07/19 05:29:23;;;;;;;;;;;13.90;95.10;;;;;;5072377;28;19912;-65
2021/07/19 05:31:49;;;;;;;;;;;13.80;94.20;;;;;;5072172;28;20282;-65
2021/07/19 05:34:16;;;;;;;;;;;13.80;94.50;;;;;;5072384;28;20007;-65
2021/07/19 05:36:43;;;;;;;;;;;13.80;94.50;;;;;;5072436;28;19952;-65
2021/07/19 05:39:09;;;;;;;;;;;13.80;94.80;;;;;;5072418;28;20009;-65
2021/07/19 05:41:36;;;;;;;;;;;13.70;94.40;;;;;;5072119;28;19909;-64
2021/07/19 05:44:02;;;;;;;;;;;13.70;94.50;;;;;;5071890;28;20398;-65
2021/07/19 05:46:29;;;;;;;;;;;13.70;94.90;;;;;;5072065;28;19908;-64
2021/07/19 05:48:56;;;;;;;;;;;13.70;94.40;;;;;;5071969;28;19962;-65
2021/07/19 05:51:22;;;;;;;;;;;13.70;94.70;;;;;;5072301;28;19908;-65
2021/07/19 05:53:49;;;;;;;;;;;13.60;95.10;;;;;;5071675;28;19912;-65
2021/07/19 05:56:16;;;;;;;;;;;13.70;94.60;;;;;;5072255;28;20356;-65
2021/07/19 05:58:42;;;;;;;;;;;13.60;94.80;;;;;;5072243;28;19908;-65
2021/07/19 06:01:09;;;;;;;;;;;13.60;95.20;;;;;;5072057;28;20011;-64
2021/07/19 06:03:36;;;;;;;;;;;13.60;95.90;;;;;;5071791;28;20401;-65
2021/07/19 06:06:02;;;;;;;;;;;13.60;94.70;;;;;;5071987;28;19915;-64
2021/07/19 06:08:29;;;;;;;;;;;13.60;94.80;;;;;;5071906;28;19945;-64
2021/07/19 06:10:56;;;;;;;;;;;13.60;94.60;;;;;;5072023;28;19916;-64
2021/07/19 06:13:22;;;;;;;;;;;13.60;94.70;;;;;;5071982;28;19915;-64
2021/07/19 06:15:49;;;;;;;;;;;13.60;94.70;;;;;;5071719;28;19913;-65
2021/07/19 06:18:16;;;;;;;;;;;13.60;94.40;;;;;;5072200;28;19995;-64
2021/07/19 06:20:43;;;;;;;;;;;13.50;94.10;;;;;;5071729;28;19909;-65
2021/07/19 06:23:10;;;;;;;;;;;13.50;93.60;;;;;;5072370;28;19915;-64
2021/07/19 06:25:41;;;;;;;;;;;13.50;93.60;;;;;;5075693;28;20000;-64
2021/07/19 06:28:08;;;;;;;;;;;13.50;93.60;;;;;;5075761;28;20256;-65
2021/07/19 06:30:35;;;;;;;;;;;13.50;93.30;;;;;;5075837;28;19909;-64
2021/07/19 06:33:02;;;;;;;;;;;13.40;93.50;;;;;;5075917;28;20244;-64
2021/07/19 06:35:28;;;;;;;;;;;13.40;93.80;;;;;;5075384;28;19952;-64
2021/07/19 06:37:55;;;;;;;;;;;13.40;94.90;;;;;;5075398;28;20286;-64
2021/07/19 06:40:22;;;;;;;;;;;13.30;95.00;;;;;;5075751;28;19944;-65
2021/07/19 06:42:49;;;;;;;;;;;13.30;94.80;;;;;;5075233;28;20393;-65
2021/07/19 06:45:16;;;;;;;;;;;13.30;94.90;;;;;;5075681;28;20022;-65
2021/07/19 06:47:43;;;;;;;;;;;13.30;94.30;;;;;;5075174;28;20321;-64
2021/07/19 06:50:10;;;;;;;;;;;13.30;95.30;;;;;;5075339;28;20007;-64
2021/07/19 06:52:38;;;;;;;;;;;13.30;94.50;;;;;;5075144;28;19909;-65
2021/07/19 06:55:05;;;;;;;;;;;13.30;94.20;;;;;;5075353;28;20286;-65
2021/07/19 06:57:32;;;;;;;;;;;13.30;94.00;;;;;;5074903;28;19980;-65
2021/07/19 06:59:59;;;;;;;;;;;13.20;94.50;;;;;;5074306;28;19955;-65
2021/07/19 07:02:26;;;;;;;;;;;13.20;95.00;;;;;;5075177;28;19919;-64
2021/07/19 07:04:52;;;;;;;;;;;13.20;94.50;;;;;;5075161;28;19966;-65
2021/07/19 07:07:19;;;;;;;;;;;13.10;94.30;;;;;;5075031;28;20210;-64
2021/07/19 07:09:46;;;;;;;;;;;13.10;94.10;;;;;;5074916;28;19944;-64
2021/07/19 07:12:12;;;;;;;;;;;13.10;94.90;;;;;;5075003;28;19916;-65
2021/07/19 07:14:39;;;;;;;;;;;13.10;94.00;;;;;;5075021;28;19917;-64
2021/07/19 07:17:06;;;;;;;;;;;13.10;94.40;;;;;;5075115;28;20278;-64
2021/07/19 07:19:32;;;;;;;;;;;13.00;94.10;;;;;;5074476;28;19909;-65
2021/07/19 07:21:59;;;;;;;;;;;13.00;94.50;;;;;;5074927;28;20036;-64
2021/07/19 07:24:26;;;;;;;;;;;13.00;94.20;;;;;;5074663;28;19948;-65
2021/07/19 07:26:53;;;;;;;;;;;13.00;94.40;;;;;;5074790;28;20348;-65
2021/07/19 07:29:19;;;;;;;;;;;12.90;94.40;;;;;;5074671;28;20367;-65
2021/07/19 07:31:46;;;;;;;;;;;12.90;94.50;;;;;;5074467;28;20323;-64
2021/07/19 07:34:13;;;;;;;;;;;12.80;94.70;;;;;;5074481;28;19916;-64
2021/07/19 07:36:40;;;;;;;;;;;12.80;95.30;;;;;;5073865;28;20002;-64
2021/07/19 07:39:07;;;;;;;;;;;12.80;94.70;;;;;;5074438;28;19969;-64
2021/07/19 07:41:34;;;;;;;;;;;12.70;94.60;;;;;;5071463;28;20031;-64
2021/07/19 07:44:00;;;;;;;;;;;12.70;95.80;;;;;;5072440;28;20345;-65
2021/07/19 07:46:28;;;;;;;;;;;12.70;96.00;;;;;;5072340;28;20302;-64
2021/07/19 07:48:54;;;;;;;;;;;12.60;95.70;;;;;;5072411;28;19948;-64
2021/07/19 07:51:21;;;;;;;;;;;12.60;95.10;;;;;;5072256;28;20374;-65
2021/07/19 07:53:48;;;;;;;;;;;12.60;94.60;;;;;;5071404;28;19965;-64
2021/07/19 07:56:15;;;;;;;;;;;12.60;94.90;;;;;;5072231;28;19913;-64
2021/07/19 07:58:41;;;;;;;;;;;12.50;95.00;;;;;;5072158;28;19909;-64
2021/07/19 08:01:08;;;;;;;;;;;12.50;94.90;;;;;;5071971;28;20310;-64
2021/07/19 08:03:35;;;;;;;;;;;12.50;95.10;;;;;;5071937;28;19912;-65
2021/07/19 08:06:01;;;;;;;;;;;12.50;94.80;;;;;;5071553;28;19938;-64
2021/07/19 08:08:28;;;;;;;;;;;12.50;95.20;;;;;;5071566;28;19989;-64
2021/07/19 08:10:55;;;;;;;;;;;12.50;94.70;;;;;;5071791;28;19970;-64
2021/07/19 08:13:21;;;;;;;;;;;12.50;94.70;;;;;;5071835;28;19908;-65
2021/07/19 08:15:48;;;;;;;;;;;12.50;95.00;;;;;;5071623;28;19923;-64
2021/07/19 08:18:15;;;;;;;;;;;12.50;95.00;;;;;;5071645;28;19989;-64
2021/07/19 08:20:43;;;;;;;;;;;12.50;95.10;;;;;;5070954;28;19909;-64
2021/07/19 08:23:10;;;;;;;;;;;12.50;95.90;;;;;;5071611;28;20007;-65
2021/07/19 08:25:37;;;;;;;;;;;12.60;96.10;;;;;;5071449;28;20013;-64
2021/07/19 08:28:04;;;;;;;;;;;12.60;96.60;;;;;;5071512;28;19912;-65
2021/07/19 08:30:31;;;;;;;;;;;12.60;97.00;;;;;;5071440;28;19916;-65
2021/07/19 08:32:58;;;;;;;;;;;12.50;96.30;;;;;;5071033;28;19909;-64
2021/07/19 08:35:25;;;;;;;;;;;12.40;96.90;;;;;;5071193;28;19916;-64
2021/07/19 08:37:56;;;;;;;;;;;12.40;96.40;;;;;;5070726;28;20271;-64
2021/07/19 08:40:24;;;;;;;;;;;12.40;96.70;;;;;;5070575;28;19972;-64
2021/07/19 08:42:50;;;;;;;;;;;12.40;96.80;;;;;;5070766;28;19912;-65
2021/07/19 08:45:17;;;;;;;;;;;12.30;96.70;;;;;;5071394;28;20405;-64
2021/07/19 08:47:45;;;;;;;;;;;12.30;97.00;;;;;;5068809;28;20021;-64
2021/07/19 08:50:12;;;;;;;;;;;12.30;97.20;;;;;;5071347;28;19951;-64
2021/07/19 08:52:40;;;;;;;;;;;12.30;97.70;;;;;;5070842;28;19912;-64
2021/07/19 08:55:08;;;;;;;;;;;12.30;97.40;;;;;;5070997;28;19962;-64
2021/07/19 08:57:34;;;;;;;;;;;12.20;97.10;;;;;;5070668;28;19935;-64
2021/07/19 09:00:03;;;;;;;;;;;12.30;98.00;;;;;;5070945;28;19908;-64
2021/07/19 09:02:30;;;;;;;;;;;12.30;97.20;;;;;;5070681;28;19912;-64
2021/07/19 09:04:57;;;;;;;;;;;12.40;97.70;;;;;;5070780;28;19913;-64
2021/07/19 09:07:24;;;;;;;;;;;12.40;97.40;;;;;;5072663;28;19947;-65
2021/07/19 09:09:51;;;;;;;;;;;12.40;97.30;;;;;;5072631;28;19916;-64
2021/07/19 09:12:30;;;;;;;;;;;12.30;97.10;;;;;;5072915;28;19909;-64
2021/07/19 09:14:56;;;;;;;;;;;12.30;97.20;;;;;;5072568;28;19917;-64
2021/07/19 09:17:24;;;;;;;;;;;12.30;97.30;;;;;;5072628;28;19913;-64
2021/07/19 09:19:50;;;;;;;;;;;12.30;97.00;;;;;;5072642;28;19979;-64
2021/07/19 09:22:27;;;;;;;;;;;12.30;97.20;;;;;;5072647;28;19908;-64
2021/07/19 09:25:14;;;;;;;;;;;12.30;97.00;;;;;;5072543;28;19916;-64
2021/07/19 09:27:50;;;;;;;;;;;12.40;97.80;;;;;;5072231;28;20359;-64
2021/07/19 09:30:18;;;;;;;;;;;12.40;98.30;;;;;;5072498;28;19920;-64
2021/07/19 09:32:54;;;;;;;;;;;12.40;97.80;;;;;;5072607;28;20424;-66
2021/07/19 09:35:21;;;;;;;;;;;12.40;97.90;;;;;;5072567;28;19924;-65
2021/07/19 09:37:48;;;;;;;;;;;12.20;98.00;;;;;;5072105;28;19909;-64
2021/07/19 09:40:14;;;;;;;;;;;12.20;98.70;;;;;;5072305;28;19908;-64
2021/07/19 09:42:42;;;;;;;;;;;12.20;98.70;;;;;;5072215;28;19936;-64
2021/07/19 09:45:09;;;;;;;;;;;12.20;98.80;;;;;;5072246;28;19927;-64
2021/07/19 09:47:37;;;;;;;;;;;12.20;98.60;;;;;;5072120;28;19909;-64
2021/07/19 09:50:17;;;;;;;;;;;12.20;98.80;;;;;;5072320;28;20458;-64
2021/07/19 09:52:44;;;;;;;;;;;12.10;98.60;;;;;;5072218;28;19995;-63
2021/07/19 09:55:14;;;;;;;;;;;12.10;98.30;;;;;;5072297;28;19923;-64
2021/07/19 09:57:45;;;;;;;;;;;12.10;99.00;;;;;;5072433;28;20436;-64
2021/07/19 10:00:13;;;;;;;;;;;12.20;98.00;;;;;;5078996;28;19998;-64
2021/07/19 10:02:40;;;;;;;;;;;12.20;98.50;;;;;;5078851;28;19908;-64
2021/07/19 10:05:08;;;;;;;;;;;12.20;98.60;;;;;;5078876;28;19909;-64
2021/07/19 10:07:36;;;;;;;;;;;12.20;98.80;;;;;;5078425;28;19908;-63
2021/07/19 10:10:08;;;;;;;;;;;12.10;98.70;;;;;;5078697;28;19908;-64
2021/07/19 10:12:35;;;;;;;;;;;12.10;99.10;;;;;;5078884;28;20267;-63
2021/07/19 10:15:05;;;;;;;;;;;12.00;98.50;;;;;;5078723;28;19917;-64
2021/07/19 10:17:33;;;;;;;;;;;12.00;98.00;;;;;;5078065;28;20343;-64
2021/07/19 10:20:00;;;;;;;;;;;11.90;97.80;;;;;;5076902;28;19909;-63
2021/07/19 10:22:26;;;;;;;;;;;11.90;97.60;;;;;;5076098;28;19909;-64
2021/07/19 10:24:53;;;;;;;;;;;11.90;98.00;;;;;;5076401;28;19971;-63
2021/07/19 10:27:30;;;;;;;;;;;11.90;97.40;;;;;;5076484;28;20439;-63
2021/07/19 10:29:56;;;;;;;;;;;11.90;98.10;;;;;;5076420;28;19916;-63
2021/07/19 10:32:24;;;;;;;;;;;11.90;98.30;;;;;;5076083;28;19921;-63
2021/07/19 10:34:52;;;;;;;;;;;11.90;98.60;;;;;;5076387;28;20305;-63
2021/07/19 10:37:25;;;;;;;;;;;11.90;99.40;;;;;;5075732;28;20349;-64
2021/07/19 10:39:54;;;;;;;;;;;11.80;99.00;;;;;;5076232;28;20350;-63
2021/07/19 10:42:22;;;;;;;;;;;11.90;99.90;;;;;;5076273;28;19909;-63
2021/07/19 10:44:49;;;;;;;;;;;11.90;99.80;;;;;;5076238;28;19935;-64
2021/07/19 10:47:19;;;;;;;;;;;11.90;98.90;;;;;;5075845;28;20282;-63
2021/07/19 10:49:55;;;;;;;;;;;11.90;99.40;;;;;;5108566;28;20282;-64
2021/07/19 10:52:42;;;;;;;;;;;11.90;99.20;;;;;;5075938;28;19908;-63
2021/07/19 10:55:11;;;;;;;;;;;11.90;99.30;;;;;;5076332;28;19920;-63
2021/07/19 10:57:38;;;;;;;;;;;11.90;99.20;;;;;;5076164;28;19912;-64
2021/07/19 11:00:15;;;;;;;;;;;11.90;99.70;;;;;;5075830;28;19989;-64
2021/07/19 11:02:42;;;;;;;;;;;12.00;99.90;;;;;;5108738;28;20287;-64
2021/07/19 11:05:09;;;;;;;;;;;12.20;99.90;;;;;;5076182;28;20382;-63
2021/07/19 11:07:43;;;;;;;;;;;12.20;99.90;;;;;;5075396;28;20370;-63
2021/07/19 11:10:16;;;;;;;;;;;12.20;99.50;;;;;;5073664;28;20355;-64
2021/07/19 11:13:01;;;;;;;;;;;12.20;99.90;;;;;;5072479;28;20038;-63
2021/07/19 11:15:38;;;;;;;;;;;12.20;99.90;;;;;;5072714;28;19917;-64
2021/07/19 11:18:14;;;;;;;;;;;12.10;99.90;;;;;;5072929;28;20347;-63
2021/07/19 11:20:42;;;;;;;;;;;12.10;99.90;;;;;;5072923;28;19908;-64
2021/07/19 11:23:09;;;;;;;;;;;12.00;99.60;;;;;;5072238;28;19913;-63
2021/07/19 11:25:43;;;;;;;;;;;12.00;99.70;;;;;;5072090;28;19912;-63
2021/07/19 11:28:24;;;;;;;;;;;11.90;99.90;;;;;;5072819;28;19935;-64
2021/07/19 11:31:04;;;;;;;;;;;11.80;99.90;;;;;;5072454;28;19920;-64
2021/07/19 11:33:32;;;;;;;;;;;11.80;99.90;;;;;;5072157;28;19955;-63
2021/07/19 11:35:58;;;;;;;;;;;11.80;99.90;;;;;;5072155;28;19917;-63
2021/07/19 11:38:35;;;;;;;;;;;11.70;99.90;;;;;;5071320;28;19920;-63
2021/07/19 11:41:12;;;;;;;;;;;11.70;99.90;;;;;;5072595;28;19948;-63
2021/07/19 11:43:39;;;;;;;;;;;11.60;99.90;;;;;;5072074;28;19924;-63
2021/07/19 11:46:06;;;;;;;;;;;11.70;99.90;;;;;;5072315;28;19916;-63
2021/07/19 11:48:33;;;;;;;;;;;11.60;99.90;;;;;;5072188;28;19909;-63
2021/07/19 11:51:00;;;;;;;;;;;11.60;99.60;;;;;;5071617;28;19909;-64
2021/07/19 11:53:26;;;;;;;;;;;11.60;99.90;;;;;;5071826;28;19912;-64
2021/07/19 11:55:53;;;;;;;;;;;11.60;99.40;;;;;;5071877;28;19960;-64
2021/07/19 11:58:20;;;;;;;;;;;11.60;99.70;;;;;;5071918;28;19915;-63
2021/07/19 12:00:46;;;;;;;;;;;11.50;99.40;;;;;;5072132;28;19961;-63
2021/07/19 12:03:14;;;;;;;;;;;11.50;99.10;;;;;;5071940;28;19912;-63
2021/07/19 12:05:55;;;;;;;;;;;11.50;99.50;;;;;;5070918;28;19908;-64
2021/07/19 12:08:33;;;;;;;;;;;11.50;99.90;;;;;;5071230;28;19965;-63
2021/07/19 12:11:07;;;;;;;;;;;11.40;99.90;;;;;;5071787;28;20321;-63
2021/07/19 12:13:34;;;;;;;;;;;11.40;99.60;;;;;;5071626;28;19924;-63
2021/07/19 12:16:02;;;;;;;;;;;11.30;99.90;;;;;;5070325;28;19965;-63
2021/07/19 12:18:55;;;;;;;;;;;11.20;99.90;;;;;;5071223;28;19909;-64
2021/07/19 12:21:23;;;;;;;;;;;11.20;99.90;;;;;;5069804;28;20364;-64
2021/07/19 12:23:51;;;;;;;;;;;11.20;99.90;;;;;;5071456;28;19955;-64
2021/07/19 12:26:19;;;;;;;;;;;11.20;99.90;;;;;;5071411;28;19947;-64
2021/07/19 12:28:55;;;;;;;;;;;11.20;99.90;;;;;;5071449;28;19912;-64
2021/07/19 12:31:33;;;;;;;;;;;11.20;99.90;;;;;;5071341;28;19912;-65
2021/07/19 12:34:04;;;;;;;;;;;11.20;99.90;;;;;;5071146;28;20484;-64
2021/07/19 12:36:31;;;;;;;;;;;11.10;99.90;;;;;;5070703;28;19912;-64
2021/07/19 12:38:58;;;;;;;;;;;11.10;99.90;;;;;;5071259;28;19957;-64
2021/07/19 12:41:24;;;;;;;;;;;11.20;99.90;;;;;;5071413;28;20007;-64
2021/07/19 12:43:51;;;;;;;;;;;11.00;99.90;;;;;;5070441;28;19946;-64
2021/07/19 12:46:18;;;;;;;;;;;11.00;99.90;;;;;;5071175;28;20003;-64
2021/07/19 12:48:46;;;;;;;;;;;11.00;99.90;;;;;;5071112;28;19915;-64
2021/07/19 12:51:13;;;;;;;;;;;11.00;99.90;;;;;;5070398;28;19920;-64
2021/07/19 12:53:40;;;;;;;;;;;11.00;99.90;;;;;;5070535;28;19954;-64
2021/07/19 12:56:10;;;;;;;;;;;11.00;99.90;;;;;;5070676;28;19931;-64
2021/07/19 12:58:38;;;;;;;;;;;10.90;99.90;;;;;;5070995;28;20375;-64
2021/07/19 13:01:11;;;;;;;;;;;10.90;99.90;;;;;;5070758;28;19919;-64
2021/07/19 13:03:39;;;;;;;;;;;10.90;99.90;;;;;;5070632;28;19916;-64
2021/07/19 13:06:05;;;;;;;;;;;10.90;99.90;;;;;;5069863;28;19971;-64
2021/07/19 13:08:33;;;;;;;;;;;11.00;99.90;;;;;;5070699;28;19948;-64
2021/07/19 13:11:09;;;;;;;;;;;11.00;99.90;;;;;;5070374;28;19908;-64
2021/07/19 13:13:36;;;;;;;;;;;10.90;99.90;;;;;;5070572;28;20409;-64
2021/07/19 13:16:03;;;;;;;;;;;10.90;99.90;;;;;;5070301;28;19923;-64
2021/07/19 13:18:32;;;;;;;;;;;10.90;99.90;;;;;;5070697;28;20462;-64
2021/07/19 13:21:06;;;;;;;;;;;10.90;99.90;;;;;;5070693;28;20001;-64
2021/07/19 13:23:34;;;;;;;;;;;10.90;99.90;;;;;;5070165;28;19908;-64
2021/07/19 13:26:05;;;;;;;;;;;10.90;99.90;;;;;;5070813;28;19935;-64
2021/07/19 13:28:31;;;;;;;;;;;10.90;99.90;;;;;;5070595;28;19984;-64
2021/07/19 13:31:01;;;;;;;;;;;10.90;99.90;;;;;;5070411;28;19908;-64
2021/07/19 13:33:29;;;;;;;;;;;10.90;99.90;;;;;;5070077;28;19939;-64
2021/07/19 13:35:57;;;;;;;;;;;10.80;99.90;;;;;;5102358;28;19920;-64
2021/07/19 13:38:37;;;;;;;;;;;10.90;99.90;;;;;;5070449;28;19996;-64
2021/07/19 13:41:04;;;;;;;;;;;10.80;99.90;;;;;;5070568;28;19958;-64
2021/07/19 13:43:35;;;;;;;;;;;10.80;99.90;;;;;;5069991;28;19925;-64
2021/07/19 13:46:02;;;;;;;;;;;10.80;99.90;;;;;;5070809;28;20420;-64
2021/07/19 13:48:29;;;;;;;;;;;10.80;99.90;;;;;;5070171;28;19920;-64
2021/07/19 13:50:57;;;;;;;;;;;10.80;99.90;;;;;;5072300;28;19916;-64
2021/07/19 13:53:23;;;;;;;;;;;10.80;99.90;;;;;;5070056;28;19917;-64
2021/07/19 13:55:54;;;;;;;;;;;10.80;99.90;;;;;;5069812;28;19921;-63
2021/07/19 13:58:20;;;;;;;;;;;10.70;99.90;;;;;;5070108;28;19912;-62
2021/07/19 14:00:47;;;;;;;;;;;10.60;99.90;;;;;;5070138;28;19916;-63
2021/07/19 14:03:14;;;;;;;;;;;10.60;99.90;;;;;;5069848;28;19963;-63
2021/07/19 14:05:44;;;;;;;;;;;10.60;99.90;;;;;;5069521;28;19962;-64
2021/07/19 14:08:11;;;;;;;;;;;10.60;99.90;;;;;;5070043;28;19909;-63
2021/07/19 14:10:39;;;;;;;;;;;10.60;99.90;;;;;;5069969;28;19948;-63
2021/07/19 14:13:06;;;;;;;;;;;10.60;99.90;;;;;;5070009;28;19916;-64
2021/07/19 14:15:33;;;;;;;;;;;10.60;99.90;;;;;;5069245;28;19928;-63
2021/07/19 14:18:00;;;;;;;;;;;10.60;99.90;;;;;;5069689;28;19912;-64
2021/07/19 14:20:27;;;;;;;;;;;10.60;99.90;;;;;;5069769;28;19912;-63
2021/07/19 14:22:56;;;;;;;;;;;10.60;99.90;;;;;;5069946;28;19967;-63